createdAt,value
2022-12-09T00:00:08.575Z,954.4400
2022-12-09T00:01:10.797Z,954.4500
2022-12-09T00:02:10.842Z,954.4900
2022-12-09T00:03:13.172Z,954.4900
2022-12-09T00:04:15.588Z,954.4900
2022-12-09T00:05:17.744Z,954.4500
2022-12-09T00:06:19.988Z,954.4700
2022-12-09T00:07:22.265Z,954.4500
2022-12-09T00:08:22.551Z,954.4000
2022-12-09T00:09:24.823Z,954.3800
2022-12-09T00:10:27.149Z,954.3600
2022-12-09T00:11:29.649Z,954.3000
2022-12-09T00:12:31.884Z,954.2400
2022-12-09T00:13:31.985Z,954.2400
2022-12-09T00:14:34.300Z,954.2200
2022-12-09T00:15:34.679Z,954.2400
2022-12-09T00:16:37.286Z,954.2200
2022-12-09T00:17:39.120Z,954.2400
2022-12-09T00:18:41.743Z,954.2600
2022-12-09T00:19:41.931Z,954.3200
2022-12-09T00:20:44.006Z,954.3400
2022-12-09T00:21:46.433Z,954.3400
2022-12-09T00:22:48.708Z,954.3200
2022-12-09T00:23:51.217Z,954.3400
2022-12-09T00:24:51.361Z,954.3600
2022-12-09T00:25:53.821Z,954.3800
2022-12-09T00:26:56.050Z,954.3800
2022-12-09T00:27:58.253Z,954.3800
2022-12-09T00:29:00.637Z,954.4000
2022-12-09T00:30:00.671Z,954.4000
2022-12-09T00:31:03.100Z,954.4000
2022-12-09T00:32:05.662Z,954.4500
2022-12-09T00:33:07.553Z,954.4700
2022-12-09T00:34:09.959Z,954.4500
2022-12-09T00:35:12.346Z,954.4700
2022-12-09T00:36:12.321Z,954.4700
2022-12-09T00:37:14.998Z,954.4900
2022-12-09T00:38:17.138Z,954.4700
2022-12-09T00:39:19.369Z,954.4700
2022-12-09T00:40:21.761Z,954.4700
2022-12-09T00:41:23.998Z,954.4700
2022-12-09T00:42:24.200Z,954.4900
2022-12-09T00:43:26.712Z,954.4900
2022-12-09T00:44:28.786Z,954.4900
2022-12-09T00:45:31.220Z,954.4900
2022-12-09T00:46:33.540Z,954.4500
2022-12-09T00:47:33.775Z,954.4500
2022-12-09T00:48:36.217Z,954.4200
2022-12-09T00:49:38.339Z,954.3800
2022-12-09T00:50:40.714Z,954.3800
2022-12-09T00:51:43.117Z,954.3800
2022-12-09T00:52:45.203Z,954.4000
2022-12-09T00:53:47.495Z,954.4000
2022-12-09T00:54:47.947Z,954.3600
2022-12-09T00:55:50.036Z,954.3200
2022-12-09T00:56:52.156Z,954.3200
2022-12-09T00:57:54.573Z,954.3000
2022-12-09T00:58:56.907Z,954.2800
2022-12-09T00:59:59.238Z,954.3000
2022-12-09T01:00:59.147Z,954.2800
2022-12-09T01:02:01.613Z,954.2800
2022-12-09T01:03:03.856Z,954.2800
2022-12-09T01:04:06.211Z,954.3200
2022-12-09T01:05:08.630Z,954.2600
2022-12-09T01:06:10.776Z,954.2400
2022-12-09T01:07:10.909Z,954.2600
2022-12-09T01:08:13.362Z,954.2200
2022-12-09T01:09:15.589Z,954.1400
2022-12-09T01:10:17.830Z,954.1000
2022-12-09T01:11:20.023Z,954.1200
2022-12-09T01:12:20.211Z,954.0800
2022-12-09T01:14:31.553Z,954.0600
2022-12-09T01:15:32.693Z,954.0400
2022-12-09T01:16:35.983Z,954.0200
2022-12-09T01:17:38.322Z,954.0000
2022-12-09T01:18:40.342Z,954.0000
2022-12-09T01:19:42.884Z,953.9600
2022-12-09T01:20:44.988Z,953.9400
2022-12-09T01:21:47.273Z,953.9100
2022-12-09T01:22:49.438Z,953.9100
2022-12-09T01:23:51.965Z,953.8700
2022-12-09T01:24:54.018Z,953.8500
2022-12-09T01:25:56.176Z,953.8300
2022-12-09T01:26:58.527Z,953.8100
2022-12-09T01:27:58.633Z,953.7900
2022-12-09T01:29:00.933Z,953.7900
2022-12-09T01:30:03.959Z,953.8300
2022-12-09T01:31:05.688Z,953.8100
2022-12-09T01:32:07.748Z,953.8300
2022-12-09T01:33:09.982Z,953.8700
2022-12-09T01:34:12.227Z,953.8900
2022-12-09T01:35:14.428Z,953.8700
2022-12-09T01:36:14.490Z,953.8900
2022-12-09T01:37:16.801Z,953.8900
2022-12-09T01:38:19.023Z,953.8300
2022-12-09T01:39:21.301Z,953.8500
2022-12-09T01:40:23.776Z,953.8900
2022-12-09T01:41:25.805Z,953.8900
2022-12-09T01:42:28.310Z,953.8700
2022-12-09T01:43:30.530Z,953.8700
2022-12-09T01:44:32.585Z,953.8300
2022-12-09T01:45:32.842Z,953.8100
2022-12-09T01:46:35.424Z,953.7900
2022-12-09T01:47:37.557Z,953.7900
2022-12-09T01:48:39.640Z,953.7900
2022-12-09T01:49:41.960Z,953.7700
2022-12-09T01:50:44.200Z,953.7900
2022-12-09T01:51:44.592Z,953.7700
2022-12-09T01:52:46.697Z,953.7700
2022-12-09T01:53:49.010Z,953.7300
2022-12-09T01:54:51.239Z,953.7100
2022-12-09T01:55:53.512Z,953.6500
2022-12-09T01:56:55.493Z,953.6500
2022-12-09T01:57:57.748Z,953.6700
2022-12-09T01:58:59.983Z,953.6700
2022-12-09T02:00:02.244Z,953.5900
2022-12-09T02:01:04.691Z,953.5500
2022-12-09T02:02:05.022Z,953.5300
2022-12-09T02:03:07.106Z,953.5200
2022-12-09T02:04:09.375Z,953.5200
2022-12-09T02:05:11.528Z,953.4800
2022-12-09T02:06:13.656Z,953.4600
2022-12-09T02:07:15.840Z,953.4200
2022-12-09T02:08:18.154Z,953.3800
2022-12-09T02:09:20.719Z,953.3400
2022-12-09T02:10:22.600Z,953.3200
2022-12-09T02:11:24.939Z,953.2800
2022-12-09T02:12:26.927Z,953.2600
2022-12-09T02:13:27.424Z,953.2600
2022-12-09T02:14:29.566Z,953.2400
2022-12-09T02:15:31.683Z,953.2800
2022-12-09T02:16:33.921Z,953.3000
2022-12-09T02:17:36.299Z,953.3400
2022-12-09T02:18:38.537Z,953.3800
2022-12-09T02:19:40.586Z,953.3800
2022-12-09T02:20:42.894Z,953.4000
2022-12-09T02:21:45.239Z,953.4400
2022-12-09T02:22:45.298Z,953.4200
2022-12-09T02:23:47.390Z,953.4200
2022-12-09T02:24:49.889Z,953.3800
2022-12-09T02:25:52.022Z,953.3400
2022-12-09T02:26:54.217Z,953.3400
2022-12-09T02:27:56.498Z,953.2800
2022-12-09T02:28:59.153Z,953.2800
2022-12-09T02:29:59.049Z,953.2600
2022-12-09T02:31:01.451Z,953.2400
2022-12-09T02:32:04.061Z,953.2200
2022-12-09T02:33:06.200Z,953.2000
2022-12-09T02:34:08.520Z,953.1600
2022-12-09T02:35:10.768Z,953.1400
2022-12-09T02:36:10.987Z,953.1200
2022-12-09T02:37:13.307Z,953.0800
2022-12-09T02:38:15.697Z,953.0400
2022-12-09T02:39:18.112Z,953.0600
2022-12-09T02:40:20.205Z,953.0400
2022-12-09T02:41:20.394Z,953.0400
2022-12-09T02:42:22.897Z,953.0000
2022-12-09T02:43:25.008Z,953.0200
2022-12-09T02:44:27.403Z,953.0000
2022-12-09T02:45:29.859Z,953.0200
2022-12-09T02:46:32.148Z,952.9800
2022-12-09T02:47:32.298Z,952.9700
2022-12-09T02:48:34.716Z,952.9100
2022-12-09T02:49:36.953Z,952.9500
2022-12-09T02:50:39.336Z,952.9300
2022-12-09T02:51:41.640Z,952.9500
2022-12-09T02:52:42.209Z,952.9500
2022-12-09T02:53:44.501Z,952.9500
2022-12-09T02:54:46.698Z,952.9300
2022-12-09T02:55:49.063Z,952.9300
2022-12-09T02:56:51.212Z,952.9300
2022-12-09T02:57:53.620Z,952.9500
2022-12-09T02:58:55.958Z,952.9300
2022-12-09T02:59:58.392Z,952.9300
2022-12-09T03:01:00.682Z,952.9300
2022-12-09T03:02:03.365Z,952.9100
2022-12-09T03:03:03.177Z,952.8900
2022-12-09T03:04:05.417Z,952.8700
2022-12-09T03:05:07.552Z,952.8300
2022-12-09T03:06:10.221Z,952.8100
2022-12-09T03:07:12.323Z,952.7700
2022-12-09T03:08:14.564Z,952.7300
2022-12-09T03:09:16.907Z,952.6900
2022-12-09T03:10:17.072Z,952.6900
2022-12-09T03:11:19.348Z,952.6700
2022-12-09T03:12:21.367Z,952.6700
2022-12-09T03:13:23.895Z,952.6500
2022-12-09T03:14:26.098Z,952.6500
2022-12-09T03:15:28.337Z,952.6300
2022-12-09T03:16:28.882Z,952.6300
2022-12-09T03:17:31.024Z,952.5900
2022-12-09T03:18:33.495Z,952.5900
2022-12-09T03:19:35.673Z,952.5800
2022-12-09T03:20:37.915Z,952.5900
2022-12-09T03:21:40.114Z,952.5600
2022-12-09T03:22:40.210Z,952.5400
2022-12-09T03:23:42.712Z,952.5400
2022-12-09T03:24:44.971Z,952.5200
2022-12-09T03:25:47.203Z,952.5200
2022-12-09T03:26:49.700Z,952.4800
2022-12-09T03:27:51.872Z,952.4800
2022-12-09T03:28:52.175Z,952.4600
2022-12-09T03:30:30.972Z,952.4200
2022-12-09T03:31:33.465Z,952.4000
2022-12-09T03:32:35.631Z,952.4000
2022-12-09T03:33:35.535Z,952.4000
2022-12-09T03:34:38.036Z,952.4200
2022-12-09T03:35:40.115Z,952.4200
2022-12-09T03:36:42.251Z,952.3800
2022-12-09T03:37:44.406Z,952.3600
2022-12-09T03:38:46.611Z,952.3800
2022-12-09T03:39:48.982Z,952.3800
2022-12-09T03:40:51.112Z,952.3200
2022-12-09T03:41:53.463Z,952.2800
2022-12-09T03:42:53.598Z,952.2800
2022-12-09T03:43:56.100Z,952.2600
2022-12-09T03:44:58.477Z,952.2600
2022-12-09T03:46:00.774Z,952.2200
2022-12-09T03:47:03.259Z,952.2000
2022-12-09T03:48:05.178Z,952.1600
2022-12-09T03:49:05.416Z,952.1600
2022-12-09T03:50:08.350Z,952.1400
2022-12-09T03:51:10.083Z,952.1400
2022-12-09T03:52:12.370Z,952.1800
2022-12-09T03:53:14.708Z,952.2400
2022-12-09T03:54:17.336Z,952.2600
2022-12-09T03:55:17.168Z,952.2400
2022-12-09T03:56:19.698Z,952.2200
2022-12-09T03:57:21.998Z,952.2000
2022-12-09T03:58:24.195Z,952.2000
2022-12-09T03:59:26.460Z,952.1800
2022-12-09T04:00:28.820Z,952.1200
2022-12-09T04:01:29.081Z,952.1100
2022-12-09T04:02:31.577Z,952.0400
2022-12-09T04:03:33.822Z,952.0300
2022-12-09T04:04:36.014Z,951.9900
2022-12-09T04:05:38.188Z,951.9700
2022-12-09T04:06:38.492Z,951.9500
2022-12-09T04:07:41.041Z,951.9300
2022-12-09T04:08:43.348Z,951.9100
2022-12-09T04:09:45.479Z,951.8900
2022-12-09T04:10:48.370Z,951.8900
2022-12-09T04:11:48.136Z,951.8900
2022-12-09T04:12:50.184Z,951.8900
2022-12-09T04:13:52.777Z,951.8500
2022-12-09T04:14:54.949Z,951.8700
2022-12-09T04:15:57.471Z,951.8700
2022-12-09T04:16:57.605Z,951.8100
2022-12-09T04:17:59.926Z,951.7900
2022-12-09T04:19:02.303Z,951.7900
2022-12-09T04:20:04.911Z,951.7700
2022-12-09T04:21:06.796Z,951.7900
2022-12-09T04:22:07.215Z,951.8300
2022-12-09T04:23:09.271Z,951.7700
2022-12-09T04:24:11.567Z,951.7500
2022-12-09T04:25:13.861Z,951.7700
2022-12-09T04:26:16.363Z,951.7900
2022-12-09T04:27:18.500Z,951.7900
2022-12-09T04:28:21.075Z,951.8100
2022-12-09T04:29:21.225Z,951.7500
2022-12-09T04:30:23.537Z,951.7300
2022-12-09T04:31:25.849Z,951.7100
2022-12-09T04:32:28.170Z,951.7700
2022-12-09T04:33:30.126Z,951.7700
2022-12-09T04:34:32.600Z,951.7700
2022-12-09T04:35:34.901Z,951.7900
2022-12-09T04:36:34.935Z,951.7700
2022-12-09T04:37:37.332Z,951.7300
2022-12-09T04:38:39.755Z,951.7100
2022-12-09T04:39:42.026Z,951.6900
2022-12-09T04:40:44.216Z,951.6900
2022-12-09T04:41:46.440Z,951.6900
2022-12-09T04:42:46.804Z,951.6700
2022-12-09T04:43:48.766Z,951.6500
2022-12-09T04:44:51.412Z,951.5800
2022-12-09T04:45:53.541Z,951.6500
2022-12-09T04:46:55.818Z,951.6500
2022-12-09T04:47:58.309Z,951.6500
2022-12-09T04:49:00.139Z,951.5800
2022-12-09T04:50:00.599Z,951.5400
2022-12-09T04:51:03.130Z,951.5400
2022-12-09T04:52:05.372Z,951.5200
2022-12-09T04:53:07.244Z,951.5200
2022-12-09T04:54:09.580Z,951.5400
2022-12-09T04:55:12.109Z,951.5800
2022-12-09T04:56:14.556Z,951.5800
2022-12-09T04:57:14.468Z,951.5800
2022-12-09T04:58:16.610Z,951.5400
2022-12-09T04:59:18.952Z,951.5600
2022-12-09T05:00:21.668Z,951.5400
2022-12-09T05:01:29.811Z,951.5000
2022-12-09T05:02:24.062Z,951.5200
2022-12-09T05:03:26.205Z,951.4400
2022-12-09T05:04:28.859Z,951.5000
2022-12-09T05:05:30.822Z,951.4600
2022-12-09T05:06:33.029Z,951.4400
2022-12-09T05:07:35.665Z,951.4400
2022-12-09T05:08:37.733Z,951.4200
2022-12-09T05:09:39.898Z,951.3800
2022-12-09T05:10:40.212Z,951.3400
2022-12-09T05:11:42.244Z,951.3600
2022-12-09T05:12:44.859Z,951.3400
2022-12-09T05:13:47.200Z,951.3200
2022-12-09T05:14:47.502Z,951.3200
2022-12-09T05:15:49.410Z,951.2800
2022-12-09T05:16:51.766Z,951.3000
2022-12-09T05:17:54.085Z,951.3200
2022-12-09T05:18:56.262Z,951.3200
2022-12-09T05:19:58.634Z,951.3000
2022-12-09T05:21:00.682Z,951.2800
2022-12-09T05:22:02.996Z,951.2600
2022-12-09T05:23:08.937Z,951.2800
2022-12-09T05:24:05.657Z,951.2800
2022-12-09T05:25:07.878Z,951.2600
2022-12-09T05:26:10.054Z,951.2800
2022-12-09T05:27:12.597Z,951.2800
2022-12-09T05:28:15.016Z,951.3400
2022-12-09T05:29:20.856Z,951.3400
2022-12-09T05:30:17.016Z,951.3600
2022-12-09T05:31:19.988Z,951.3400
2022-12-09T05:32:21.735Z,951.3600
2022-12-09T05:33:24.450Z,951.3600
2022-12-09T05:34:26.614Z,951.3600
2022-12-09T05:35:28.496Z,951.3800
2022-12-09T05:36:28.609Z,951.3800
2022-12-09T05:37:30.882Z,951.3600
2022-12-09T05:38:33.407Z,951.3600
2022-12-09T05:39:35.635Z,951.3800
2022-12-09T05:40:37.681Z,951.3600
2022-12-09T05:41:40.137Z,951.3600
2022-12-09T05:42:42.481Z,951.4200
2022-12-09T05:43:44.747Z,951.4000
2022-12-09T05:44:44.951Z,951.3800
2022-12-09T05:45:47.257Z,951.4000
2022-12-09T05:46:49.401Z,951.4200
2022-12-09T05:47:52.068Z,951.4200
2022-12-09T05:48:54.168Z,951.4000
2022-12-09T05:49:56.237Z,951.4400
2022-12-09T05:50:56.593Z,951.3800
2022-12-09T05:51:58.570Z,951.4000
2022-12-09T05:53:00.959Z,951.3800
2022-12-09T05:54:03.589Z,951.4000
2022-12-09T05:55:05.551Z,951.4200
2022-12-09T05:56:08.278Z,951.4200
2022-12-09T05:57:10.104Z,951.4800
2022-12-09T05:58:12.674Z,951.4400
2022-12-09T05:59:12.689Z,951.4800
2022-12-09T06:00:14.998Z,951.4800
2022-12-09T06:01:17.346Z,951.4800
2022-12-09T06:02:19.719Z,951.4800
2022-12-09T06:03:21.821Z,951.4800
2022-12-09T06:04:24.489Z,951.4400
2022-12-09T06:05:24.514Z,951.4400
2022-12-09T06:06:26.650Z,951.4200
2022-12-09T06:07:28.787Z,951.4600
2022-12-09T06:08:31.244Z,951.4200
2022-12-09T06:09:33.377Z,951.4000
2022-12-09T06:10:35.617Z,951.4000
2022-12-09T06:11:38.251Z,951.3600
2022-12-09T06:12:38.001Z,951.4000
2022-12-09T06:13:40.853Z,951.3600
2022-12-09T06:14:42.729Z,951.3400
2022-12-09T06:15:45.340Z,951.3600
2022-12-09T06:17:35.086Z,951.3800
2022-12-09T06:18:36.952Z,951.3800
2022-12-09T06:19:39.313Z,951.3800
2022-12-09T06:20:41.723Z,951.3200
2022-12-09T06:21:41.700Z,951.3200
2022-12-09T06:22:44.143Z,951.3200
2022-12-09T06:23:46.306Z,951.3000
2022-12-09T06:24:52.727Z,951.2600
2022-12-09T06:25:51.357Z,951.2800
2022-12-09T06:26:53.347Z,951.2200
2022-12-09T06:27:53.808Z,951.2000
2022-12-09T06:28:56.148Z,951.2000
2022-12-09T06:29:58.455Z,951.2000
2022-12-09T06:31:00.911Z,951.1800
2022-12-09T06:32:03.352Z,951.1600
2022-12-09T06:33:12.893Z,951.1400
2022-12-09T06:34:03.758Z,951.1400
2022-12-09T06:35:06.550Z,951.1200
2022-12-09T06:36:08.000Z,951.1100
2022-12-09T06:37:08.138Z,951.1200
2022-12-09T06:38:10.354Z,951.0900
2022-12-09T06:39:13.101Z,951.0500
2022-12-09T06:40:15.164Z,951.0700
2022-12-09T06:41:17.957Z,951.0900
2022-12-09T06:42:17.950Z,951.0900
2022-12-09T06:43:20.069Z,951.0900
2022-12-09T06:44:24.286Z,951.0700
2022-12-09T06:45:24.775Z,951.0900
2022-12-09T06:46:29.361Z,951.1100
2022-12-09T06:47:29.767Z,951.0900
2022-12-09T06:48:30.071Z,951.0700
2022-12-09T06:49:32.292Z,951.0700
2022-12-09T06:50:34.222Z,951.0500
2022-12-09T06:51:36.966Z,951.0300
2022-12-09T06:52:38.883Z,951.0300
2022-12-09T06:53:41.018Z,951.0500
2022-12-09T06:54:41.393Z,951.0500
2022-12-09T06:55:43.650Z,951.0500
2022-12-09T06:56:45.958Z,951.0500
2022-12-09T06:57:48.635Z,951.0700
2022-12-09T06:58:49.026Z,951.0700
2022-12-09T06:59:51.197Z,951.0500
2022-12-09T07:00:53.710Z,951.0500
2022-12-09T07:01:56.126Z,951.0300
2022-12-09T07:02:56.452Z,951.0100
2022-12-09T07:03:58.527Z,950.9700
2022-12-09T07:05:00.931Z,950.9900
2022-12-09T07:06:03.359Z,950.9700
2022-12-09T07:07:05.570Z,951.0300
2022-12-09T07:08:07.781Z,951.0300
2022-12-09T07:09:08.019Z,951.0100
2022-12-09T07:10:10.459Z,951.0300
2022-12-09T07:11:12.532Z,951.0100
2022-12-09T07:12:14.853Z,951.0100
2022-12-09T07:13:17.216Z,950.9900
2022-12-09T07:14:19.401Z,950.9900
2022-12-09T07:15:19.365Z,950.9900
2022-12-09T07:16:21.934Z,950.9900
2022-12-09T07:17:24.014Z,950.9900
2022-12-09T07:18:26.640Z,950.9900
2022-12-09T07:19:28.662Z,951.0100
2022-12-09T07:20:30.801Z,951.0100
2022-12-09T07:21:31.028Z,950.9900
2022-12-09T07:22:33.668Z,950.9700
2022-12-09T07:23:35.870Z,950.9700
2022-12-09T07:24:37.808Z,950.9900
2022-12-09T07:25:40.213Z,950.9900
2022-12-09T07:26:42.710Z,950.9900
2022-12-09T07:27:45.311Z,950.9900
2022-12-09T07:28:45.004Z,950.9900
2022-12-09T07:29:47.996Z,951.0300
2022-12-09T07:30:50.130Z,951.0300
2022-12-09T07:31:52.027Z,950.9900
2022-12-09T07:32:54.488Z,950.9900
2022-12-09T07:33:56.978Z,950.9900
2022-12-09T07:34:59.399Z,950.9900
2022-12-09T07:36:01.240Z,950.9900
2022-12-09T07:37:03.900Z,950.9700
2022-12-09T07:38:06.185Z,950.9300
2022-12-09T07:39:06.295Z,950.9700
2022-12-09T07:40:08.656Z,950.9300
2022-12-09T07:41:10.702Z,950.9300
2022-12-09T07:42:13.248Z,950.9300
2022-12-09T07:43:15.639Z,950.9300
2022-12-09T07:44:15.596Z,950.9700
2022-12-09T07:45:18.401Z,950.9700
2022-12-09T07:46:20.819Z,950.9700
2022-12-09T07:47:23.104Z,951.0100
2022-12-09T07:48:25.410Z,951.0300
2022-12-09T07:49:25.752Z,951.0300
2022-12-09T07:50:27.662Z,951.0100
2022-12-09T07:51:29.883Z,950.9500
2022-12-09T07:52:31.992Z,950.9500
2022-12-09T07:53:34.581Z,950.9700
2022-12-09T07:54:37.078Z,950.9300
2022-12-09T07:55:36.893Z,950.9700
2022-12-09T07:56:39.125Z,950.9100
2022-12-09T07:57:41.798Z,950.9500
2022-12-09T07:58:43.970Z,950.9700
2022-12-09T07:59:46.325Z,950.9700
2022-12-09T08:00:46.584Z,950.9500
2022-12-09T08:01:48.763Z,950.9300
2022-12-09T08:02:51.200Z,950.9300
2022-12-09T08:03:53.678Z,950.9300
2022-12-09T08:04:56.043Z,950.9500
2022-12-09T08:05:56.610Z,950.9500
2022-12-09T08:06:58.707Z,950.9300
2022-12-09T08:08:01.078Z,950.9500
2022-12-09T08:09:04.342Z,950.9300
2022-12-09T08:10:05.486Z,950.9300
2022-12-09T08:11:05.964Z,950.8900
2022-12-09T08:12:08.532Z,950.8700
2022-12-09T08:13:10.474Z,950.8900
2022-12-09T08:14:13.120Z,950.8500
2022-12-09T08:15:13.697Z,950.8700
2022-12-09T08:16:15.991Z,950.8500
2022-12-09T08:17:17.959Z,950.8500
2022-12-09T08:18:18.269Z,950.8300
2022-12-09T08:19:21.074Z,950.8500
2022-12-09T08:20:28.836Z,950.8700
2022-12-09T08:21:25.604Z,950.8300
2022-12-09T08:22:27.732Z,950.8300
2022-12-09T08:23:28.390Z,950.8100
2022-12-09T08:24:30.733Z,950.7900
2022-12-09T08:25:33.189Z,950.7900
2022-12-09T08:26:35.133Z,950.7900
2022-12-09T08:27:37.488Z,950.7500
2022-12-09T08:28:37.959Z,950.7500
2022-12-09T08:29:40.187Z,950.7700
2022-12-09T08:30:42.485Z,950.8100
2022-12-09T08:31:45.184Z,950.8500
2022-12-09T08:32:47.061Z,950.8300
2022-12-09T08:33:49.208Z,950.7900
2022-12-09T08:34:49.694Z,950.7900
2022-12-09T08:35:51.777Z,950.8500
2022-12-09T08:36:58.723Z,950.8300
2022-12-09T08:37:56.475Z,950.8100
2022-12-09T08:38:58.813Z,950.8300
2022-12-09T08:39:59.572Z,950.8100
2022-12-09T08:41:01.876Z,950.7900
2022-12-09T08:42:02.321Z,950.7900
2022-12-09T08:43:04.358Z,950.7900
2022-12-09T08:44:05.740Z,950.8300
2022-12-09T08:45:07.265Z,950.8500
2022-12-09T08:46:09.511Z,950.8100
2022-12-09T08:47:11.767Z,950.7900
2022-12-09T08:48:14.339Z,950.7500
2022-12-09T08:49:16.390Z,950.7500
2022-12-09T08:50:19.081Z,950.7100
2022-12-09T08:51:20.954Z,950.7500
2022-12-09T08:52:23.205Z,950.7500
2022-12-09T08:53:25.792Z,950.7300
2022-12-09T08:54:28.163Z,950.7100
2022-12-09T08:55:30.584Z,950.7500
2022-12-09T08:56:32.785Z,950.7500
2022-12-09T08:57:35.179Z,950.7500
2022-12-09T08:58:37.417Z,950.7500
2022-12-09T08:59:45.059Z,950.7500
2022-12-09T09:00:41.772Z,950.7100
2022-12-09T09:01:42.229Z,950.7100
2022-12-09T09:02:44.238Z,950.7100
2022-12-09T09:03:46.866Z,950.6700
2022-12-09T09:04:48.862Z,950.6900
2022-12-09T09:05:48.924Z,950.7100
2022-12-09T09:06:51.651Z,950.7300
2022-12-09T09:07:53.434Z,950.7300
2022-12-09T09:08:55.658Z,950.7100
2022-12-09T09:09:58.048Z,950.6900
2022-12-09T09:11:00.947Z,950.6900
2022-12-09T09:12:02.706Z,950.6700
2022-12-09T09:13:02.901Z,950.7300
2022-12-09T09:14:05.103Z,950.7500
2022-12-09T09:15:07.812Z,950.7700
2022-12-09T09:16:09.737Z,950.7700
2022-12-09T09:17:12.034Z,950.7900
2022-12-09T09:18:14.384Z,950.8100
2022-12-09T09:19:16.760Z,950.7900
2022-12-09T09:20:19.192Z,950.7700
2022-12-09T09:21:21.078Z,950.7700
2022-12-09T09:22:23.563Z,950.7500
2022-12-09T09:23:23.553Z,950.7700
2022-12-09T09:24:26.006Z,950.7900
2022-12-09T09:25:28.018Z,950.7900
2022-12-09T09:26:31.083Z,950.7700
2022-12-09T09:27:30.546Z,950.7700
2022-12-09T09:28:32.876Z,950.7700
2022-12-09T09:29:35.599Z,950.7500
2022-12-09T09:30:35.597Z,950.7700
2022-12-09T09:31:38.280Z,950.7500
2022-12-09T09:32:40.543Z,950.7900
2022-12-09T09:33:42.691Z,950.7700
2022-12-09T09:34:45.044Z,950.7700
2022-12-09T09:35:47.431Z,950.7700
2022-12-09T09:36:47.649Z,950.7700
2022-12-09T09:37:49.620Z,950.7300
2022-12-09T09:38:52.312Z,950.7500
2022-12-09T09:39:54.805Z,950.7300
2022-12-09T09:40:56.832Z,950.7300
2022-12-09T09:42:04.620Z,950.7100
2022-12-09T09:43:01.474Z,950.6700
2022-12-09T09:44:01.445Z,950.6400
2022-12-09T09:45:03.932Z,950.6400
2022-12-09T09:46:06.205Z,950.6400
2022-12-09T09:47:08.584Z,950.6700
2022-12-09T09:48:10.524Z,950.6500
2022-12-09T09:49:13.156Z,950.6900
2022-12-09T09:50:15.550Z,950.6700
2022-12-09T09:51:17.749Z,950.6700
2022-12-09T09:52:19.773Z,950.6700
2022-12-09T09:53:22.152Z,950.6500
2022-12-09T09:54:24.392Z,950.6400
2022-12-09T09:55:26.625Z,950.6200
2022-12-09T09:56:29.264Z,950.6000
2022-12-09T09:57:29.157Z,950.6000
2022-12-09T09:58:31.695Z,950.5800
2022-12-09T09:59:33.590Z,950.5600
2022-12-09T10:00:36.217Z,950.5800
2022-12-09T10:01:36.018Z,950.5800
2022-12-09T10:02:38.744Z,950.5600
2022-12-09T10:03:40.958Z,950.5800
2022-12-09T10:04:43.410Z,950.5600
2022-12-09T10:05:45.849Z,950.5400
2022-12-09T10:06:47.844Z,950.5400
2022-12-09T10:07:50.565Z,950.5400
2022-12-09T10:08:50.463Z,950.5400
2022-12-09T10:09:52.721Z,950.5400
2022-12-09T10:10:54.663Z,950.5200
2022-12-09T10:11:57.400Z,950.5000
2022-12-09T10:13:05.042Z,950.5000
2022-12-09T10:13:59.578Z,950.4800
2022-12-09T10:15:01.665Z,950.4600
2022-12-09T10:16:03.991Z,950.4600
2022-12-09T10:17:06.623Z,950.4200
2022-12-09T10:18:08.834Z,950.4400
2022-12-09T10:19:10.715Z,950.4000
2022-12-09T10:20:11.606Z,950.4200
2022-12-09T10:21:13.060Z,950.3600
2022-12-09T10:22:15.487Z,950.3600
2022-12-09T10:23:18.159Z,950.3600
2022-12-09T10:24:18.273Z,950.3400
2022-12-09T10:25:20.249Z,950.3400
2022-12-09T10:26:22.891Z,950.3400
2022-12-09T10:27:25.083Z,950.3000
2022-12-09T10:28:27.068Z,950.3000
2022-12-09T10:29:29.732Z,950.3000
2022-12-09T10:30:37.289Z,950.3000
2022-12-09T10:31:34.363Z,950.2800
2022-12-09T10:32:36.589Z,950.2800
2022-12-09T10:33:39.123Z,950.2800
2022-12-09T10:34:40.979Z,950.2400
2022-12-09T10:35:43.332Z,950.2000
2022-12-09T10:36:45.566Z,950.2000
2022-12-09T10:37:47.937Z,950.2000
2022-12-09T10:38:50.247Z,950.1500
2022-12-09T10:39:52.852Z,950.1500
2022-12-09T10:40:55.123Z,950.1500
2022-12-09T10:41:57.138Z,950.1300
2022-12-09T10:42:59.410Z,950.1100
2022-12-09T10:43:59.937Z,950.1100
2022-12-09T10:45:02.329Z,950.1100
2022-12-09T10:46:21.039Z,950.1100
2022-12-09T10:47:06.447Z,950.1100
2022-12-09T10:48:08.628Z,950.1300
2022-12-09T10:49:11.308Z,950.1300
2022-12-09T10:50:13.818Z,950.1300
2022-12-09T10:51:13.391Z,950.1300
2022-12-09T10:52:15.926Z,950.1300
2022-12-09T10:53:18.026Z,950.0900
2022-12-09T10:54:21.873Z,950.1300
2022-12-09T10:55:20.240Z,950.1300
2022-12-09T10:56:22.695Z,950.1100
2022-12-09T10:57:25.158Z,950.1100
2022-12-09T10:58:27.500Z,950.0900
2022-12-09T10:59:27.394Z,950.0700
2022-12-09T11:00:34.595Z,950.0500
2022-12-09T11:01:32.267Z,950.0100
2022-12-09T11:02:34.729Z,950.0100
2022-12-09T11:03:36.638Z,949.9700
2022-12-09T11:04:39.433Z,949.9900
2022-12-09T11:05:41.472Z,950.0100
2022-12-09T11:06:41.671Z,949.9900
2022-12-09T11:07:43.677Z,949.9700
2022-12-09T11:08:46.159Z,949.9500
2022-12-09T11:09:48.402Z,949.9500
2022-12-09T11:10:50.536Z,949.9700
2022-12-09T11:11:52.758Z,949.9100
2022-12-09T11:12:55.401Z,949.9100
2022-12-09T11:13:55.594Z,949.9100
2022-12-09T11:14:57.747Z,949.8900
2022-12-09T11:16:00.255Z,949.8900
2022-12-09T11:17:02.058Z,949.8900
2022-12-09T11:18:04.550Z,949.8700
2022-12-09T11:19:06.703Z,949.8900
2022-12-09T11:20:09.877Z,949.8900
2022-12-09T11:21:09.040Z,949.8500
2022-12-09T11:22:11.495Z,949.8700
2022-12-09T11:23:14.308Z,949.8500
2022-12-09T11:24:16.386Z,949.8500
2022-12-09T11:25:18.339Z,949.8500
2022-12-09T11:26:20.840Z,949.8500
2022-12-09T11:27:21.208Z,949.8500
2022-12-09T11:28:23.222Z,949.8100
2022-12-09T11:29:25.516Z,949.7900
2022-12-09T11:30:29.138Z,949.7700
2022-12-09T11:31:30.046Z,949.7500
2022-12-09T11:32:30.775Z,949.7500
2022-12-09T11:33:32.578Z,949.7500
2022-12-09T11:34:35.190Z,949.7300
2022-12-09T11:35:37.367Z,949.7300
2022-12-09T11:36:43.680Z,949.7100
2022-12-09T11:37:41.604Z,949.7100
2022-12-09T11:38:41.729Z,949.7300
2022-12-09T11:39:44.029Z,949.7300
2022-12-09T11:40:47.164Z,949.7500
2022-12-09T11:41:48.656Z,949.7300
2022-12-09T11:42:51.002Z,949.7100
2022-12-09T11:43:53.299Z,949.7000
2022-12-09T11:44:55.614Z,949.7000
2022-12-09T11:45:57.951Z,949.6800
2022-12-09T11:47:00.393Z,949.7000
2022-12-09T11:49:04.789Z,949.7000
2022-12-09T11:50:07.526Z,949.6800
2022-12-09T11:51:09.352Z,949.7000
2022-12-09T11:52:09.449Z,949.6600
2022-12-09T11:53:11.722Z,949.6600
2022-12-09T11:54:13.981Z,949.6800
2022-12-09T11:55:16.250Z,949.6400
2022-12-09T11:56:16.585Z,949.6400
2022-12-09T11:57:18.681Z,949.6600
2022-12-09T11:58:20.985Z,949.6600
2022-12-09T11:59:23.265Z,949.6400
2022-12-09T12:00:23.406Z,949.6600
2022-12-09T12:01:25.706Z,949.6400
2022-12-09T12:02:28.008Z,949.6400
2022-12-09T12:03:30.316Z,949.6600
2022-12-09T12:04:30.399Z,949.6600
2022-12-09T12:05:32.652Z,949.6200
2022-12-09T12:06:34.962Z,949.6600
2022-12-09T12:07:37.203Z,949.6800
2022-12-09T12:08:37.382Z,949.6400
2022-12-09T12:09:39.543Z,949.6600
2022-12-09T12:10:41.819Z,949.6800